ΕΜΥ, Εθνική Μετεωρολογική Υπηρεσία - Δελτία Καιρού, Προγνώσεις

ΑΕΡΟΝΑΥΤΙΛΙΑ

GREEK AIRPORTS CODES

LGSR 191420Z 35011KT CAVOK 24/16 Q1010=

EUROPEAN AIRPORTS CODES

LFPO 191430Z 02004KT 330V080 9999 FEW025 BKN110 19/12 Q1012TEMPO 4000 BKN020TCU=